createdAt,value
2022-11-16T00:01:23.966Z,10.70
2022-11-16T00:04:26.826Z,10.90
2022-11-16T00:07:29.312Z,10.25
2022-11-16T00:10:31.889Z,10.60
2022-11-16T00:13:35.926Z,10.55
2022-11-16T00:16:38.999Z,10.13
2022-11-16T00:19:41.494Z,9.97
2022-11-16T00:22:44.130Z,10.65
2022-11-16T00:25:46.845Z,10.27
2022-11-16T00:28:49.885Z,10.80
2022-11-16T00:31:53.838Z,10.02
2022-11-16T00:34:56.580Z,10.80
2022-11-16T00:37:59.072Z,10.30
2022-11-16T00:41:02.106Z,9.90
2022-11-16T00:44:04.698Z,10.40
2022-11-16T00:47:08.374Z,10.68
2022-11-16T00:50:10.786Z,10.37
2022-11-16T00:53:15.009Z,10.75
2022-11-16T00:56:17.718Z,10.57
2022-11-16T00:59:31.914Z,10.20
2022-11-16T01:02:35.255Z,10.65
2022-11-16T01:05:38.582Z,9.97
2022-11-16T01:08:42.583Z,10.23
2022-11-16T01:12:03.629Z,10.82
2022-11-16T01:15:10.280Z,10.70
2022-11-16T01:18:12.823Z,10.52
2022-11-16T01:21:15.364Z,10.37
2022-11-16T01:24:17.964Z,10.48
2022-11-16T01:27:20.604Z,9.80
2022-11-16T01:30:23.247Z,10.18
2022-11-16T01:33:36.719Z,9.82
2022-11-16T01:36:40.397Z,10.27
2022-11-16T01:39:44.101Z,10.27
2022-11-16T01:42:46.820Z,10.25
2022-11-16T01:45:50.424Z,10.18
2022-11-16T01:49:03.436Z,10.23
2022-11-16T01:52:10.453Z,9.50
2022-11-16T01:55:14.658Z,9.60
2022-11-16T01:58:27.189Z,10.23
2022-11-16T02:01:35.940Z,10.48
2022-11-16T02:04:40.452Z,10.43
2022-11-16T02:08:09.797Z,10.20
2022-11-16T02:11:46.146Z,10.10
2022-11-16T02:15:13.663Z,9.95
2022-11-16T02:18:48.069Z,10.38
2022-11-16T02:22:27.062Z,10.60
2022-11-16T02:25:34.801Z,10.23
2022-11-16T02:28:45.956Z,9.98
2022-11-16T02:32:07.789Z,9.85
2022-11-16T02:35:16.936Z,10.00
2022-11-16T02:38:23.865Z,10.55
2022-11-16T02:41:31.741Z,9.47
2022-11-16T02:44:36.995Z,10.32
2022-11-16T02:47:41.822Z,10.63
2022-11-16T02:50:46.866Z,9.35
2022-11-16T02:54:03.243Z,10.20
2022-11-16T02:57:07.084Z,9.30
2022-11-16T03:00:17.009Z,9.45
2022-11-16T03:03:43.156Z,10.23
2022-11-16T03:06:48.766Z,10.18
2022-11-16T03:09:55.505Z,10.50
2022-11-16T03:13:00.795Z,9.90
2022-11-16T03:16:10.191Z,10.10
2022-11-16T03:19:17.241Z,10.18
2022-11-16T03:22:26.889Z,9.40
2022-11-16T03:25:41.035Z,9.73
2022-11-16T03:28:57.582Z,9.67
2022-11-16T03:32:07.094Z,9.90
2022-11-16T03:35:18.566Z,9.48
2022-11-16T03:38:24.634Z,9.52
2022-11-16T03:41:30.033Z,9.80
2022-11-16T03:44:34.376Z,9.60
2022-11-16T03:47:37.542Z,9.50
2022-11-16T03:50:41.168Z,9.65
2022-11-16T03:53:44.779Z,9.55
2022-11-16T03:56:48.407Z,9.98
2022-11-16T03:59:51.323Z,9.10
2022-11-16T04:02:54.184Z,9.48
2022-11-16T04:06:18.753Z,10.27
2022-11-16T04:09:39.964Z,9.82
2022-11-16T04:13:02.543Z,9.57
2022-11-16T04:16:23.833Z,10.13
2022-11-16T04:19:45.439Z,9.55
2022-11-16T04:23:33.161Z,9.68
2022-11-16T04:26:57.237Z,9.80
2022-11-16T04:30:02.146Z,9.18
2022-11-16T04:33:25.017Z,9.23
2022-11-16T04:36:46.683Z,9.68
2022-11-16T04:39:49.422Z,9.32
2022-11-16T04:42:53.639Z,9.63
2022-11-16T04:46:15.175Z,10.00
2022-11-16T04:49:18.960Z,10.23
2022-11-16T04:52:22.701Z,9.93
2022-11-16T04:55:26.831Z,9.60
2022-11-16T04:58:29.472Z,10.10
2022-11-16T05:01:50.624Z,9.85
2022-11-16T05:04:53.159Z,8.80
2022-11-16T05:07:57.184Z,10.05
2022-11-16T05:11:03.622Z,9.93
2022-11-16T05:14:06.543Z,9.57
2022-11-16T05:17:09.742Z,9.27
2022-11-16T05:20:30.994Z,9.33
2022-11-16T05:23:57.224Z,9.45
2022-11-16T05:27:10.645Z,9.20
2022-11-16T05:30:14.307Z,9.52
2022-11-16T05:33:18.667Z,8.90
2022-11-16T05:36:21.428Z,9.23
2022-11-16T05:39:26.043Z,9.23
2022-11-16T05:42:29.785Z,9.20
2022-11-16T05:45:33.434Z,9.18
2022-11-16T05:48:37.298Z,9.52
2022-11-16T05:51:45.325Z,8.90
2022-11-16T05:54:49.684Z,9.27
2022-11-16T05:57:52.275Z,9.55
2022-11-16T06:00:55.220Z,9.18
2022-11-16T06:04:02.013Z,9.07
2022-11-16T06:07:06.240Z,8.80
2022-11-16T06:10:11.034Z,9.27
2022-11-16T06:13:15.432Z,9.70
2022-11-16T06:16:18.520Z,9.45
2022-11-16T06:19:22.116Z,9.38
2022-11-16T06:22:24.999Z,8.50
2022-11-16T06:25:27.830Z,9.35
2022-11-16T06:28:30.926Z,8.90
2022-11-16T06:31:34.321Z,9.20
2022-11-16T06:34:38.528Z,8.98
2022-11-16T06:37:41.125Z,9.03
2022-11-16T06:40:45.063Z,9.32
2022-11-16T06:43:48.260Z,8.98
2022-11-16T06:46:54.181Z,9.25
2022-11-16T06:49:57.221Z,9.40
2022-11-16T06:53:01.043Z,8.90
2022-11-16T06:56:06.134Z,8.57
2022-11-16T06:59:14.369Z,9.50
2022-11-16T07:02:22.614Z,9.60
2022-11-16T07:05:25.926Z,8.70
2022-11-16T07:08:30.652Z,8.83
2022-11-16T07:11:34.763Z,9.60
2022-11-16T07:14:37.739Z,9.20
2022-11-16T07:17:42.979Z,8.65
2022-11-16T07:20:45.687Z,9.02
2022-11-16T07:23:48.574Z,8.73
2022-11-16T07:26:55.356Z,8.48
2022-11-16T07:30:02.324Z,8.73
2022-11-16T07:33:14.080Z,9.15
2022-11-16T07:36:45.740Z,9.02
2022-11-16T07:39:49.251Z,8.73
2022-11-16T07:42:51.998Z,8.45
2022-11-16T07:46:46.565Z,8.93
2022-11-16T07:49:38.208Z,9.80
2022-11-16T07:52:47.443Z,8.55
2022-11-16T07:55:55.332Z,8.67
2022-11-16T07:58:59.798Z,8.20
2022-11-16T08:02:03.985Z,9.07
2022-11-16T08:05:07.808Z,8.82
2022-11-16T08:08:15.355Z,8.48
2022-11-16T08:11:19.118Z,8.57
2022-11-16T08:14:24.319Z,8.85
2022-11-16T08:17:31.257Z,9.57
2022-11-16T08:20:36.670Z,8.45
2022-11-16T08:23:40.558Z,9.00
2022-11-16T08:26:43.806Z,8.47
2022-11-16T08:29:52.152Z,8.63
2022-11-16T08:32:55.120Z,8.07
2022-11-16T08:35:58.847Z,8.63
2022-11-16T08:39:01.930Z,9.05
2022-11-16T08:42:09.827Z,8.23
2022-11-16T08:45:13.861Z,8.63
2022-11-16T08:48:17.564Z,8.45
2022-11-16T08:51:21.183Z,8.75
2022-11-16T08:54:34.219Z,8.65
2022-11-16T08:57:37.932Z,9.20
2022-11-16T09:00:45.063Z,8.40
2022-11-16T09:03:47.733Z,8.60
2022-11-16T09:06:53.045Z,8.50
2022-11-16T09:09:56.724Z,8.85
2022-11-16T09:12:59.301Z,8.27
2022-11-16T09:16:02.446Z,8.40
2022-11-16T09:19:05.185Z,8.30
2022-11-16T09:22:07.781Z,8.63
2022-11-16T09:25:15.409Z,9.45
2022-11-16T09:28:19.794Z,8.70
2022-11-16T09:31:23.765Z,8.45
2022-11-16T09:34:29.576Z,8.75
2022-11-16T09:37:32.179Z,8.07
2022-11-16T09:40:38.163Z,8.40
2022-11-16T09:44:16.547Z,8.63
2022-11-16T09:48:02.524Z,8.73
2022-11-16T09:51:16.347Z,9.60
2022-11-16T09:54:26.287Z,8.50
2022-11-16T09:57:37.658Z,8.35
2022-11-16T10:01:25.924Z,9.10
2022-11-16T10:04:30.300Z,8.75
2022-11-16T10:07:41.880Z,8.77
2022-11-16T10:11:05.143Z,7.93
2022-11-16T10:14:30.022Z,8.40
2022-11-16T10:18:03.596Z,8.70
2022-11-16T10:21:44.887Z,8.85
2022-11-16T10:25:02.706Z,8.25
2022-11-16T10:28:14.941Z,8.60
2022-11-16T10:31:51.605Z,8.52
2022-11-16T10:35:00.400Z,8.40
2022-11-16T10:38:12.105Z,7.70
2022-11-16T10:41:43.604Z,8.45
2022-11-16T10:45:20.805Z,8.27
2022-11-16T10:49:01.932Z,8.32
2022-11-16T10:52:04.764Z,8.47
2022-11-16T10:55:07.737Z,9.23
2022-11-16T10:58:10.344Z,8.73
2022-11-16T11:01:41.467Z,8.60
2022-11-16T11:05:17.449Z,9.13
2022-11-16T11:08:34.568Z,8.27
2022-11-16T11:11:57.351Z,9.00
2022-11-16T11:15:13.345Z,8.82
2022-11-16T11:18:22.586Z,8.90
2022-11-16T11:21:27.213Z,8.10
2022-11-16T11:24:48.002Z,8.90
2022-11-16T11:27:52.572Z,8.75
2022-11-16T11:31:22.720Z,8.95
2022-11-16T11:34:29.659Z,8.35
2022-11-16T11:37:41.176Z,8.02
2022-11-16T11:40:58.068Z,9.13
2022-11-16T11:44:21.921Z,8.70
2022-11-16T11:48:03.009Z,7.72
2022-11-16T11:51:05.602Z,9.07
2022-11-16T11:54:25.795Z,8.88
2022-11-16T11:57:28.613Z,8.33
2022-11-16T12:00:44.602Z,9.02
2022-11-16T12:03:56.407Z,10.30
2022-11-16T12:07:20.223Z,9.15
2022-11-16T12:11:05.044Z,8.60
2022-11-16T12:14:13.399Z,8.13
2022-11-16T12:17:31.451Z,8.98
2022-11-16T12:21:05.707Z,9.55
2022-11-16T12:24:20.446Z,8.85
2022-11-16T12:27:37.263Z,8.50
2022-11-16T12:31:09.567Z,8.73
2022-11-16T12:34:58.356Z,8.45
2022-11-16T12:38:30.737Z,7.90
2022-11-16T12:42:06.174Z,8.77
2022-11-16T12:45:35.250Z,8.85
2022-11-16T12:48:57.041Z,8.77
2022-11-16T12:52:09.350Z,9.63
2022-11-16T12:55:40.255Z,8.80
2022-11-16T12:59:23.965Z,9.02
2022-11-16T13:02:45.408Z,9.50
2022-11-16T13:06:09.581Z,8.73
2022-11-16T13:09:32.758Z,8.75
2022-11-16T13:12:36.878Z,9.63
2022-11-16T13:15:41.590Z,8.90
2022-11-16T13:18:44.875Z,9.15
2022-11-16T13:22:10.633Z,8.70
2022-11-16T13:25:22.691Z,9.18
2022-11-16T13:28:37.506Z,8.70
2022-11-16T13:31:53.355Z,9.45
2022-11-16T13:34:59.217Z,9.57
2022-11-16T13:38:01.963Z,8.27
2022-11-16T13:41:37.507Z,8.82
2022-11-16T13:44:40.191Z,8.85
2022-11-16T13:47:50.708Z,9.25
2022-11-16T13:50:56.208Z,8.60
2022-11-16T13:57:24.642Z,8.32
2022-11-16T14:00:33.663Z,8.90
2022-11-16T14:03:40.316Z,8.18
2022-11-16T14:06:42.936Z,8.60
2022-11-16T14:09:48.141Z,8.47
2022-11-16T14:12:52.964Z,8.80
2022-11-16T14:16:15.118Z,8.48
2022-11-16T14:19:52.029Z,8.65
2022-11-16T14:23:11.400Z,9.10
2022-11-16T14:26:25.488Z,9.13
2022-11-16T14:29:50.103Z,8.68
2022-11-16T14:32:55.309Z,8.57
2022-11-16T14:36:06.369Z,7.95
2022-11-16T14:39:27.303Z,8.77
2022-11-16T14:42:54.327Z,8.80
2022-11-16T14:46:16.065Z,8.82
2022-11-16T14:49:20.534Z,9.02
2022-11-16T14:52:39.322Z,9.07
2022-11-16T14:55:44.298Z,9.52
2022-11-16T14:58:55.219Z,8.70
2022-11-16T15:01:59.617Z,9.02
2022-11-16T15:05:02.677Z,8.52
2022-11-16T15:08:17.291Z,7.90
2022-11-16T15:11:56.592Z,9.27
2022-11-16T15:15:07.413Z,9.17
2022-11-16T15:18:14.943Z,8.80
2022-11-16T15:21:23.733Z,9.25
2022-11-16T15:24:34.520Z,9.32
2022-11-16T15:27:39.452Z,9.00
2022-11-16T15:30:46.435Z,9.10
2022-11-16T15:33:51.272Z,9.20
2022-11-16T15:36:53.803Z,8.90
2022-11-16T15:40:00.791Z,9.15
2022-11-16T15:43:06.106Z,9.50
2022-11-16T15:46:09.020Z,9.17
2022-11-16T15:49:34.483Z,8.98
2022-11-16T15:52:55.594Z,9.30
2022-11-16T15:55:58.330Z,9.02
2022-11-16T15:59:10.079Z,9.88
2022-11-16T16:02:19.209Z,8.87
2022-11-16T16:05:39.892Z,9.02
2022-11-16T16:08:42.623Z,9.35
2022-11-16T16:11:45.938Z,8.90
2022-11-16T16:14:50.196Z,9.02
2022-11-16T16:17:57.909Z,8.70
2022-11-16T16:21:02.441Z,8.98
2022-11-16T16:24:08.171Z,9.82
2022-11-16T16:27:19.430Z,12.38
2022-11-16T16:30:28.383Z,14.88
2022-11-16T16:33:31.539Z,12.90
2022-11-16T16:36:34.523Z,13.48
2022-11-16T16:39:39.021Z,12.18
2022-11-16T16:42:43.046Z,12.98
2022-11-16T16:45:45.806Z,13.10
2022-11-16T16:48:48.788Z,12.17
2022-11-16T16:51:51.731Z,10.70
2022-11-16T16:54:55.003Z,10.73
2022-11-16T16:57:59.483Z,11.80
2022-11-16T17:01:05.219Z,10.70
2022-11-16T17:04:07.930Z,11.50
2022-11-16T17:07:10.865Z,10.90
2022-11-16T17:10:13.652Z,11.23
2022-11-16T17:13:16.409Z,10.85
2022-11-16T17:16:20.934Z,10.32
2022-11-16T17:19:23.768Z,11.30
2022-11-16T17:22:26.460Z,11.05
2022-11-16T17:25:30.519Z,10.57
2022-11-16T17:28:33.892Z,11.43
2022-11-16T17:31:37.035Z,11.13
2022-11-16T17:34:41.910Z,10.90
2022-11-16T17:37:44.686Z,10.85
2022-11-16T17:40:48.538Z,10.95
2022-11-16T17:43:53.928Z,10.68
2022-11-16T17:46:56.861Z,11.15
2022-11-16T17:50:01.690Z,11.50
2022-11-16T17:53:04.435Z,11.00
2022-11-16T17:56:08.186Z,11.38
2022-11-16T17:59:11.369Z,10.30
2022-11-16T18:02:14.488Z,10.30
2022-11-16T18:05:17.354Z,10.43
2022-11-16T18:08:20.832Z,11.15
2022-11-16T18:11:26.338Z,10.15
2022-11-16T18:14:29.026Z,10.43
2022-11-16T18:17:31.732Z,10.65
2022-11-16T18:20:38.373Z,10.33
2022-11-16T18:23:41.927Z,10.43
2022-11-16T18:26:44.675Z,10.85
2022-11-16T18:29:48.451Z,10.30
2022-11-16T18:32:52.004Z,10.50
2022-11-16T18:35:55.138Z,10.80
2022-11-16T18:38:58.159Z,10.38
2022-11-16T18:42:00.942Z,10.73
2022-11-16T18:45:03.620Z,10.13
2022-11-16T18:48:06.670Z,10.40
2022-11-16T18:51:11.837Z,10.63
2022-11-16T18:54:15.117Z,10.32
2022-11-16T18:57:18.019Z,10.77
2022-11-16T19:00:21.661Z,9.98
2022-11-16T19:03:24.547Z,12.20
2022-11-16T19:06:27.568Z,9.87
2022-11-16T19:09:30.234Z,10.05
2022-11-16T19:12:33.025Z,9.93
2022-11-16T19:15:36.641Z,10.52
2022-11-16T19:18:39.976Z,9.85
2022-11-16T19:21:42.959Z,9.97
2022-11-16T19:24:46.153Z,9.48
2022-11-16T19:27:48.868Z,10.20
2022-11-16T19:30:52.225Z,9.77
2022-11-16T19:34:05.955Z,9.52
2022-11-16T19:37:09.225Z,9.47
2022-11-16T19:40:13.084Z,10.07
2022-11-16T19:43:16.046Z,9.35
2022-11-16T19:46:23.615Z,10.15
2022-11-16T19:49:26.959Z,10.05
2022-11-16T19:52:30.119Z,10.40
2022-11-16T19:55:32.743Z,10.27
2022-11-16T19:58:37.476Z,9.65
2022-11-16T20:01:49.725Z,9.20
2022-11-16T20:04:53.906Z,10.07
2022-11-16T20:07:57.418Z,9.63
2022-11-16T20:11:00.689Z,9.35
2022-11-16T20:14:05.587Z,10.35
2022-11-16T20:17:08.586Z,9.55
2022-11-16T20:20:11.227Z,10.05
2022-11-16T20:23:16.143Z,9.37
2022-11-16T20:26:21.066Z,9.05
2022-11-16T20:29:24.636Z,9.38
2022-11-16T20:32:29.003Z,10.27
2022-11-16T20:35:33.314Z,8.85
2022-11-16T20:38:37.822Z,9.00
2022-11-16T20:41:40.866Z,9.02
2022-11-16T20:44:44.008Z,8.70
2022-11-16T20:47:46.919Z,9.70
2022-11-16T20:50:54.347Z,8.90
2022-11-16T20:53:57.399Z,9.20
2022-11-16T20:57:00.037Z,9.20
2022-11-16T21:00:05.644Z,9.30
2022-11-16T21:03:08.920Z,9.50
2022-11-16T21:06:13.467Z,9.95
2022-11-16T21:09:22.131Z,9.07
2022-11-16T21:12:43.355Z,9.40
2022-11-16T21:16:01.098Z,8.82
2022-11-16T21:19:04.352Z,8.90
2022-11-16T21:22:06.844Z,9.48
2022-11-16T21:25:09.640Z,8.80
2022-11-16T21:28:12.067Z,9.48
2022-11-16T21:31:19.799Z,9.35
2022-11-16T21:34:24.473Z,9.00
2022-11-16T21:37:26.966Z,9.20
2022-11-16T21:40:29.505Z,8.87
2022-11-16T21:43:37.271Z,9.30
2022-11-16T21:46:40.128Z,9.32
2022-11-16T21:50:00.838Z,9.15
2022-11-16T21:53:06.584Z,9.20
2022-11-16T21:56:13.855Z,8.97
2022-11-16T21:59:16.319Z,8.60
2022-11-16T22:02:18.932Z,8.60
2022-11-16T22:05:40.469Z,8.90
2022-11-16T22:08:43.439Z,8.95
2022-11-16T22:11:45.969Z,8.60
2022-11-16T22:14:48.409Z,8.50
2022-11-16T22:17:50.955Z,8.65
2022-11-16T22:20:53.399Z,9.30
2022-11-16T22:23:55.914Z,9.02
2022-11-16T22:26:58.476Z,8.30
2022-11-16T22:30:01.156Z,9.00
2022-11-16T22:33:03.703Z,9.55
2022-11-16T22:36:10.257Z,8.73
2022-11-16T22:39:12.870Z,8.57
2022-11-16T22:42:16.153Z,8.30
2022-11-16T22:45:18.599Z,8.70
2022-11-16T22:48:21.180Z,8.60
2022-11-16T22:51:28.538Z,8.52
2022-11-16T22:54:31.049Z,8.38
2022-11-16T22:57:33.528Z,8.73
2022-11-16T23:00:40.568Z,8.70
2022-11-16T23:03:44.683Z,8.00
2022-11-16T23:06:47.509Z,8.07
2022-11-16T23:09:50.019Z,8.70
2022-11-16T23:13:11.917Z,8.20
2022-11-16T23:16:14.713Z,8.73
2022-11-16T23:19:37.783Z,8.05
2022-11-16T23:23:08.516Z,8.10
2022-11-16T23:26:35.797Z,7.93
2022-11-16T23:29:38.275Z,8.07
2022-11-16T23:32:41.917Z,8.27
2022-11-16T23:35:44.398Z,8.18
2022-11-16T23:38:46.857Z,8.38
2022-11-16T23:42:08.128Z,8.45
2022-11-16T23:45:10.944Z,8.20
2022-11-16T23:48:15.963Z,8.38
2022-11-16T23:51:18.835Z,9.15
2022-11-16T23:54:21.536Z,7.78
2022-11-16T23:57:24.029Z,8.88
